Tiempo atmosférico en la estación meteorológica de Huercal Overa, Almería (295 m.)



Fecha
DESCASC
Temp. máxima en grados centígrados (hora)
DESCASC
Temp. mínima en grados centígrados (hora)
DESCASC
Temp. media en grados centígrados
DESCASC
Racha de viento máxima en m/sg (hora)
DESCASC
Velocidad máxima media en intervalos de 10 minutos(hora)
DESCASC
Precipitaciones diarias en mm
DESCASC
Precipitaciones de 00:00 a 06:00 en mm
DESCASC
Precipitaciones de 06:00 a 12:00 en mm
DESCASC
Precipitaciones de 12:00 a 18:00 en mm
DESCASC
Precipitaciones de 18:00 a 24:00 en mm
DESCASC

Gráficas

Temp. máximas Temp. mínimas Temp. medias Precipitaciones Rachas de viento máximas Velocidades máximas media en intervalos de 10 minutos

Datos horarios

Fecha y hora oficial Temperatura (ºC) Velocidad del viento (km/h) Dirección del viento Racha (km/h) Dirección de racha Precipitación (mm) Presión (hPa) Tendencia (hPa) Humedad (%)
2019-10-13 23:00:00 18.9 2 Sur 4 Sur 0 981.9 0.8 79
2019-10-13 22:00:00 19.7 0 Calma 10 Oeste 0 981.5 0.7 77
2019-10-13 21:00:00 20.8 2 Sudoeste 8 Sudoeste 0 981.5 0.7 77
2019-10-13 20:00:00 21.4 4 Sudoeste 8 Sur 0 981.1 0.4 75
2019-10-13 19:00:00 22.6 6 Sudoeste 18 Sudoeste 0 980.8 0.4 71
2019-10-13 18:00:00 23.3 13 Sudoeste 22 Sudoeste 0 980.8 -0.3 65
2019-10-13 17:00:00 24.5 13 Sudoeste 25 Sur 0 980.7 -0.8 58
2019-10-13 16:00:00 25 14 Sudoeste 23 Sudoeste 0 980.4 -2.6 50
2019-10-13 15:00:00 25.2 13 Sudoeste 21 Sur 0 981.1 -1.5 47
2019-10-13 14:00:00 25.5 9 Sudoeste 18 Sudoeste 0 981.5 -1 44
2019-10-13 13:00:00 24.9 8 Sudoeste 15 Sudoeste 0 983 0.8 43
2019-10-13 12:00:00 25.5 3 Sudoeste 7 Sudoeste 0 982.6 0.3 46
2019-10-13 11:00:00 23.7 0 Calma 4 Sudoeste 0 982.5 0.3 48
2019-10-13 10:00:00 19.2 2 Sudoeste 4 Sudoeste 0 982.2 0.2 65
2019-10-13 09:00:00 16.4 0 Calma 6 Sudoeste 0 982.3 0.6 82
2019-10-13 08:00:00 15.8 0 Calma 5 Oeste 0 982.2 0.5 81
2019-10-13 07:00:00 16.3 0 Calma 6 Noroeste 0 982 0 81
2019-10-13 06:00:00 16.4 2 Noroeste 7 Noroeste 0 981.7 -0.8 81
2019-10-13 05:00:00 16.5 0 Calma 7 Noroeste 0 981.7 -0.9 81
2019-10-13 04:00:00 17.1 0 Calma 4 Este 0 982 -0.6 81
2019-10-13 03:00:00 17.6 0 Calma 6 Noroeste 0 982.5 0 81
2019-10-13 02:00:00 17.9 3 Noroeste 6 Oeste 0 982.6 0.2 81
2019-10-13 01:00:00 18.5 0 Calma 4 Noroeste 0 982.6 0.7 81
2019-10-13 00:00:00 18.8 0 Calma 6 Este 0 982.5 0.7 81
2019-10-12 23:00:00 19.4 0 Calma 4 Oeste 0 982.4 0.8 80
2019-10-12 22:00:00 20 3 Noroeste 7 Sudoeste 0 981.9 0.9 78
2019-10-12 21:00:00 21 3 Sudoeste 8 Sur 0 981.8 1.1 78
2019-10-12 20:00:00 21.6 5 Sudoeste 21 Sudoeste 0 981.6 0.7 74
2019-10-12 19:00:00 22.6 13 Sudoeste 23 Sudoeste 0 981 0.2 65
2019-10-12 18:00:00 24.7 13 Sudoeste 19 Oeste 0 980.7 -1.1 53
2019-10-12 17:00:00 25.9 10 Sudoeste 17 Sur 0 980.9 -2.2 47
2019-10-12 16:00:00 28.3 4 Nordeste 15 Nordeste 0 980.8 -2.8 35
2019-10-12 15:00:00 26.9 4 Este 15 Sudeste 0 981.8 -2.4 37
2019-10-12 14:00:00 24.7 7 Sudeste 15 Sudeste 0 983.1 0.1 46
2019-10-12 13:00:00 23 5 Este 13 Este 0 983.6 0.6 50
2019-10-12 12:00:00 21.9 5 Este 15 Este 0 984.2 1.2 56
2019-10-12 11:00:00 22.1 4 Este 14 Sudeste 0 983 -0.4 57
2019-10-12 10:00:00 20.2 3 Nordeste 13 Sudeste 0 983 0.1 65
2019-10-12 09:00:00 17.4 0 Calma 7 Este 0 983 0.2 81
2019-10-12 08:00:00 16 0 Calma 8 Noroeste 0 983.4 0.6 82
2019-10-12 07:00:00 16.2 4 Noroeste 8 Oeste 0 982.9 -0.3 82
2019-10-12 06:00:00 17.1 0 Calma 10 Oeste 0 982.8 -1 82
2019-10-12 05:00:00 17.3 4 Nordeste 8 Oeste 0 982.8 -1.2 82
2019-10-12 04:00:00 18.1 0 Calma 7 Noroeste 0 983.2 -1.5 81
2019-10-12 03:00:00 18.4 5 Norte 22 Nordeste 0 983.8 -1 80
2019-10-12 02:00:00 19.3 8 Este 22 Este 0 984 -0.6 76
2019-10-12 01:00:00 19.4 7 Este 24 Este 0 984.7 0.4 78
2019-10-12 00:00:00 19.5 6 Este 19 Nordeste 0 984.8 0.7 76
2019-10-11 23:00:00 19.6 2 Este 10 Este 0 984.6 0.8 78
2019-10-11 22:00:00 19.6 0 Calma 5 Noroeste 0 984.3 0.6 81
2019-10-11 21:00:00 20.5 3 Oeste 7 Sur 0 984.1 0.6 77
2019-10-11 20:00:00 21.1 5 Sur 13 Sur 0 983.8 0.5 75
2019-10-11 19:00:00 22.1 8 Sudoeste 21 Sur 0 983.7 0 69
2019-10-11 18:00:00 23.9 11 Sudoeste 20 Sudoeste 0 983.5 -0.7 57
2019-10-11 17:00:00 24.8 10 Sudoeste 17 Sudoeste 0 983.3 -1.8 49
2019-10-11 16:00:00 24.9 8 Sudeste 17 Este 0 983.7 -2.6 43
2019-10-11 15:00:00 25.2 6 Este 21 Sudeste 0 984.2 -2 40
2019-10-11 14:00:00 26.1 6 Este 18 Sudeste 0 985.1 -1.5 38
2019-10-11 13:00:00 24.5 7 Sudeste 18 Este 0 986.3 0.4 39
2019-10-11 12:00:00 23.9 7 Nordeste 18 Este 0 986.2 0.2 40
2019-10-11 11:00:00 22.4 2 Sur 7 Sudeste 0 986.6 0.3 46
2019-10-11 10:00:00 21.5 0 Calma 5 Sudoeste 0 985.9 -0.2 49
2019-10-11 09:00:00 17.4 0 Calma 8 Noroeste 0 986 -0.1 73
2019-10-11 08:00:00 16.2 6 Noroeste 8 Noroeste 0 986.3 -0.1 76
2019-10-11 07:00:00 16.5 5 Noroeste 8 Noroeste 0 986.1 -0.3 76
2019-10-11 06:00:00 16.3 4 Noroeste 8 Norte 0 986.1 -0.6 79
2019-10-11 05:00:00 16.6 4 Noroeste 9 Noroeste 0 986.4 -0.1 78
2019-10-11 04:00:00 16.8 4 Noroeste 7 Noroeste 0 986.4 -0.3 79
2019-10-11 03:00:00 18.2 0 Calma 8 Sudeste 0 986.7 0 79
2019-10-11 02:00:00 18.4 4 Este 8 Sudeste 0 986.5 0 79
2019-10-11 01:00:00 18.7 6 Este 12 Este 0 986.7 0.4 78
2019-10-11 00:00:00 19 2 Nordeste 8 Este 0 986.7 1.1 78
2019-10-10 23:00:00 20 0 Calma 6 Este 0 986.5 1.3 75
2019-10-10 22:00:00 20.7 3 Este 11 Nordeste 0 986.3 1.3 72
2019-10-10 21:00:00 21 4 Este 13 Este 0 985.6 0.9 69
2019-10-10 20:00:00 21.5 4 Sudeste 14 Este 0 985.2 0.8 69
2019-10-10 19:00:00 22.3 7 Este 17 Sudeste 0 985 0.5 63
2019-10-10 18:00:00 24.3 6 Sudeste 17 Sur 0 984.7 0 51
2019-10-10 17:00:00 24.5 6 Sur 16 Sudoeste 0 984.4 -1.2 47
2019-10-10 16:00:00 24.7 6 Este 18 Sudeste 0 984.5 -1.7 43
2019-10-10 15:00:00 25.2 6 Este 21 Sudeste 0 984.7 -1.6 40
2019-10-10 14:00:00 24.8 7 Sudeste 19 Este 0 985.6 -0.7 40
2019-10-10 13:00:00 24 7 Sudeste 18 Sudeste 0 986.2 0.5 42
2019-10-10 12:00:00 23.2 8 Sudeste 19 Sudeste 0 986.3 0.2 48
2019-10-10 11:00:00 21.9 0 Calma 7 Sudoeste 0 986.3 1.1 59
2019-10-10 10:00:00 21.3 2 Oeste 5 Sudoeste 0 985.7 0.6 62
2019-10-10 09:00:00 16.8 0 Calma 5 Sur 0 986.1 1.3 81
2019-10-10 08:00:00 17.1 0 Calma 5 Sudoeste 0 985.2 0.6 81
2019-10-10 07:00:00 17.7 4 Oeste 7 Norte 0 985.1 0.6 80
2019-10-10 06:00:00 16.9 4 Oeste 9 Norte 0 984.8 0.3 81
2019-10-10 05:00:00 17.2 4 Noroeste 8 Noroeste 0 984.6 0.4 80
2019-10-10 04:00:00 16.6 2 Noroeste 5 Nordeste 0 984.5 0.6 81
2019-10-10 03:00:00 17.3 0 Calma 5 Este 0 984.5 0.9 80
2019-10-10 02:00:00 17.4 2 Este 6 Nordeste 0 984.2 0.8 81
2019-10-10 01:00:00 17.9 2 Este 6 Nordeste 0 983.9 0.9 81
2019-10-10 00:00:00 18.5 0 Calma 5 Norte 0 983.6 1.2 81
2019-10-09 23:00:00 18.8 2 Oeste 4 Noroeste 0 983.4 1.7 78
2019-10-09 22:00:00 19.5 0 Calma 9 Sudoeste 0 983 2 74
2019-10-09 21:00:00 19.7 5 Sudoeste 11 Sudoeste 0 982.4 1.9 74
2019-10-09 20:00:00 20.7 7 Sudoeste 18 Sudoeste 0 981.7 1.1 59
2019-10-09 19:00:00 22.4 10 Sudoeste 22 Sudoeste 0 981 0.5 43
2019-10-09 18:00:00 23.7 12 Sur 20 Sudoeste 0 980.5 -0.3 36
2019-10-09 17:00:00 25.1 13 Sudoeste 23 Sudoeste 0 980.6 -0.9 35
2019-10-09 16:00:00 26.3 10 Sur 20 Sudoeste 0 980.5 -1.7 36
2019-10-09 15:00:00 27.3 3 Sur 15 Sudoeste 0 980.8 -1.9 32
2019-10-09 14:00:00 25.6 6 Sudoeste 14 Sudoeste 0 981.5 -1.2 35
2019-10-09 13:00:00 26.1 3 Sudoeste 14 Sudoeste 0 982.2 0 37
2019-10-09 12:00:00 24.6 0 Calma 8 Sudoeste 0 982.7 0.1 37
2019-10-09 11:00:00 22.6 2 Sur 7 Sudoeste 0 982.7 0.2 45
2019-10-09 10:00:00 20.1 0 Calma 3 Sur 0 982.2 -0.2 57
2019-10-09 09:00:00 15.9 0 Calma -- -- 0 982.6 0.3 81
2019-10-09 08:00:00 14.9 0 Calma 4 Noroeste 0 982.5 0.2 82
2019-10-09 07:00:00 15.1 0 Calma 2 Oeste 0 982.4 -0.3 82
2019-10-09 06:00:00 15.1 0 Calma 5 Oeste 0 982.3 -0.8 82
2019-10-09 05:00:00 15.5 0 Calma 5 Oeste 0 982.3 -1 81
2019-10-09 04:00:00 15.9 0 Calma 5 Sudeste 0 982.7 -1 81
2019-10-09 03:00:00 16.2 0 Calma 2 Oeste 0 983.1 -0.7 81
2019-10-09 02:00:00 16.4 0 Calma 3 Sudoeste 0 983.3 -0.5 80
2019-10-09 01:00:00 16.9 0 Calma 3 Nordeste 0 983.7 0.2 78
2019-10-09 00:00:00 17.4 0 Calma 3 Sudeste 0 983.8 0.1 77
2019-10-08 23:00:00 18.2 0 Calma 4 Noroeste 0 983.8 0.4 74
2019-10-08 22:00:00 19.3 0 Calma 5 Norte 0 983.5 0.3 69
2019-10-08 21:00:00 19.1 4 Sudoeste 12 Sudoeste 0 983.7 0.4 69
2019-10-08 20:00:00 19.9 6 Sudoeste 17 Sur 0 983.4 -0.2 64
2019-10-08 19:00:00 21.1 11 Sudoeste 20 Sur 0 983.2 -0.8 54
2019-10-08 18:00:00 22.7 12 Sudoeste 21 Sudoeste 0 983.3 -1.1 48
2019-10-08 17:00:00 23.1 13 Sur 20 Sur 0 983.6 -1.6 46
2019-10-08 16:00:00 23.2 4 Sur 16 Sudeste 0 984 -1.7 57
2019-10-08 15:00:00 21.2 8 Sur 19 Sudoeste 0 984.4 -1.6 69
2019-10-08 14:00:00 20.9 9 Sur 18 Sur 0 985.2 -1 70
2019-10-08 13:00:00 22.1 0 Calma 11 Sudoeste 0 985.7 -0.1 64
2019-10-08 12:00:00 20.8 4 Sur 8 Sudoeste 0 986 0.5 69
2019-10-08 11:00:00 20.5 2 Oeste 6 Noroeste 0 986.2 1.1 67
2019-10-08 10:00:00 20.4 3 Noroeste 9 Noroeste 0 985.8 1 64
2019-10-08 09:00:00 18.3 0 Calma 6 Sudoeste 0 985.5 1 75
2019-10-08 08:00:00 18.1 0 Calma 4 Noroeste 0 985.1 1.1 76
2019-10-08 07:00:00 17.8 0 Calma 4 Sur 0 984.8 1 77
2019-10-08 06:00:00 16.5 2 Noroeste 8 Noroeste 0 984.5 0.6 81
2019-10-08 05:00:00 16.9 3 Noroeste 5 Noroeste 0 984 0.3 81
2019-10-08 04:00:00 17.2 0 Calma 5 Nordeste 0 983.8 -0.3 80
2019-10-08 03:00:00 18 0 Calma 5 Sudoeste 0 983.9 -0.2 78
2019-10-08 02:00:00 18.4 0 Calma 8 Noroeste 0 983.7 -0.3 78
2019-10-08 01:00:00 18.6 0 Calma 4 Noroeste 0 984.1 0.9 79
2019-10-08 00:00:00 19.6 0 Calma 4 Noroeste 0 984.1 1.5 78
2019-10-07 23:00:00 20.2 0 Calma 5 Nordeste 0 984 2 73
2019-10-07 22:00:00 20.8 2 Sudeste 12 Este 0 983.2 1.9 61
2019-10-07 21:00:00 21.6 5 Este 9 Nordeste 0 982.6 2 55
2019-10-07 20:00:00 22.8 4 Este 13 Este 0 982 2.1 52
2019-10-07 19:00:00 24.5 4 Sudeste 14 Sur 0 981.3 1.9 37
2019-10-07 18:00:00 26.8 5 Sudeste 23 Sudeste 0 980.6 0.9 24
2019-10-07 17:00:00 28.8 13 Sur 27 Sur 0 979.9 -0.8 21
2019-10-07 16:00:00 30.7 13 Sudoeste 22 Sudoeste 0 979.4 -2.3 18
2019-10-07 15:00:00 31.1 12 Sur 23 Sur 0 979.7 -2.3 17
2019-10-07 14:00:00 32.5 2 Sudeste 9 Sur 0 980.7 -1 16
2019-10-07 13:00:00 32.2 3 Este 9 Nordeste 0 981.7 0.5 18
2019-10-07 12:00:00 29.1 2 Sudeste 5 Sudeste 0 982 0.8 22
2019-10-07 11:00:00 26.7 0 Calma 5 Sudeste 0 981.7 0.5 30
2019-10-07 10:00:00 23.1 0 Calma 5 Este 0 981.2 -0.1 37
2019-10-07 09:00:00 17.8 3 Norte 9 Noroeste 0 981.2 0.1 49
2019-10-07 08:00:00 16.9 0 Calma 8 Nordeste 0 981.2 0 56
2019-10-07 07:00:00 16.5 3 Este 8 Nordeste 0 981.3 -0.5 61
2019-10-07 06:00:00 17.3 0 Calma 6 Nordeste 0 981.1 -1.2 69
2019-10-07 05:00:00 17.2 4 Este 9 Nordeste 0 981.2 -1.2 69
2019-10-07 04:00:00 17.9 0 Calma 6 Nordeste 0 981.8 -1 65
2019-10-07 03:00:00 17.7 0 Calma 6 Noroeste 0 982.3 -0.9 65
2019-10-07 02:00:00 18.5 0 Calma 4 Noroeste 0 982.4 -1 64
2019-10-07 01:00:00 19.2 0 Calma 5 Oeste 0 982.8 0.1 61
2019-10-07 00:00:00 19.6 2 Sudoeste 7 Noroeste 0 983.2 1 62
2019-10-06 23:00:00 19.6 3 Oeste 8 Noroeste 0 983.4 1.4 61
2019-10-06 22:00:00 20.8 3 Noroeste 6 Noroeste 0 982.7 1 54
2019-10-06 21:00:00 21.8 0 Calma 8 Sur 0 982.2 0.7 53
2019-10-06 20:00:00 22.8 3 Sudoeste 13 Sudoeste 0 982 0.4 45
2019-10-06 19:00:00 25.7 5 Oeste 20 Sudoeste 0 981.7 0.1 40
2019-10-06 18:00:00 25.3 13 Sur 21 Sudoeste 0 981.5 -0.6 42
2019-10-06 17:00:00 26.7 13 Sudoeste 26 Sudoeste 0 981.6 -1.3 38
2019-10-06 16:00:00 25.7 15 Sur 27 Sudoeste 0 981.6 -1.9 42
2019-10-06 15:00:00 27.3 14 Sudoeste 22 Sur 0 982.1 -1.1 34
2019-10-06 14:00:00 28.8 9 Sur 15 Sudoeste 0 982.9 -0.4 25
2019-10-06 13:00:00 28.4 3 Sur 9 Sur 0 983.5 0.9 26
2019-10-06 12:00:00 28.9 0 Calma 9 Este 0 983.2 0.6 28
2019-10-06 11:00:00 24.1 3 Este 8 Sudeste 0 983.3 1.1 35
2019-10-06 10:00:00 21.3 2 Este 6 Noroeste 0 982.6 0.3 45
2019-10-06 09:00:00 17 0 Calma 6 Nordeste 0 982.6 0.4 56
2019-10-06 08:00:00 14.6 3 Este 7 Nordeste 0 982.2 0.3 65
2019-10-06 07:00:00 15.1 0 Calma 5 Este 0 982.3 0.2 61
2019-10-06 06:00:00 15.6 0 Calma 4 Este 0 982.2 0.1 60
2019-10-06 05:00:00 15.9 0 Calma 6 Este 0 981.9 0 60
2019-10-06 04:00:00 16.9 2 Noroeste 6 Oeste 0 982.1 0.1 53
2019-10-06 03:00:00 17.4 0 Calma 5 Noroeste 0 982.1 -0.1 53
2019-10-06 02:00:00 18.3 0 Calma 6 Noroeste 0 981.9 0 53
2019-10-06 01:00:00 18.5 0 Calma 6 Nordeste 0 982 0.5 52
2019-10-06 00:00:00 18.6 2 Este 6 Sudeste 0 982.2 1.3 52
2019-10-05 23:00:00 19.7 0 Calma 6 Oeste 0 981.9 1.8 48
2019-10-05 22:00:00 20.9 0 Calma 4 Sudeste 0 981.5 1.6 44
2019-10-05 21:00:00 22.1 2 Este 8 Nordeste 0 980.9 1.5 43
2019-10-05 20:00:00 23.4 3 Este 10 Sur 0 980.1 0.8 44
2019-10-05 19:00:00 24.6 8 Sur 18 Sudoeste 0 979.9 0.7 35
2019-10-05 18:00:00 27 9 Sudoeste 19 Sur 0 979.4 -0.3 27
2019-10-05 17:00:00 27 12 Sur 25 Sudoeste 0 979.3 -0.9 28
2019-10-05 16:00:00 27.5 15 Sudoeste 26 Sudoeste 0 979.2 -2 27
2019-10-05 15:00:00 28.2 16 Sudoeste 28 Sudoeste 0 979.7 -1.1 20
2019-10-05 14:00:00 29.1 10 Sur 21 Sudoeste 0 980.2 -0.4 20
2019-10-05 13:00:00 29.1 6 Sur 15 Sur 0 981.2 1.2 20
2019-10-05 12:00:00 29.3 0 Calma 5 Sudeste 0 980.8 0.6 23
2019-10-05 11:00:00 25.4 0 Calma 5 Sudoeste 0 980.6 0.3 29
2019-10-05 10:00:00 23.2 0 Calma 5 Nordeste 0 980 -0.3 38
2019-10-05 09:00:00 18.9 0 Calma 5 Noroeste 0 980.2 -0.1 48
2019-10-05 08:00:00 15.7 0 Calma 6 Este 0 980.3 0.1 61
2019-10-05 07:00:00 15.5 3 Oeste 9 Noroeste 0 980.3 0.1 56
2019-10-05 06:00:00 15.9 3 Noroeste 8 Nordeste 0 980.3 0 61
2019-10-05 05:00:00 16 3 Nordeste 6 Este 0 980.2 -0.1 62
2019-10-05 04:00:00 16.3 4 Este 9 Este 0 980.2 -0.7 64
2019-10-05 03:00:00 17.6 2 Sudoeste 8 Sudoeste 0 980.3 -0.5 56
2019-10-05 02:00:00 17.9 0 Calma 5 Noroeste 0 980.3 -0.6 58
2019-10-05 01:00:00 18.3 0 Calma 7 Este 0 980.9 0.1 56
2019-10-05 00:00:00 19.1 0 Calma 0 Calma 0 980.8 0.3 51
2019-10-04 23:00:00 19.5 0 Calma 3 Noroeste 0 980.9 0.6 50
2019-10-04 22:00:00 20.7 3 Noroeste 5 Nordeste 0 980.8 0.8 47
2019-10-04 21:00:00 22.4 4 Nordeste 11 Este 0 980.5 0.4 43
2019-10-04 20:00:00 23.7 6 Este 14 Nordeste 0 980.3 0.1 37
2019-10-04 19:00:00 26.3 4 Sudoeste 14 Sur 0 980 -0.4 31
2019-10-04 18:00:00 27.3 9 Sur 23 Sur 0 980.1 -0.9 25
2019-10-04 17:00:00 27.1 11 Sur 21 Sudoeste 0 980.2 -1.4 25
2019-10-04 16:00:00 27.6 13 Sudoeste 23 Sudoeste 0 980.4 -2 24
2019-10-04 15:00:00 28.2 12 Sudoeste 23 Sudoeste 0 981 -1.8 21
2019-10-04 14:00:00 28.7 8 Sur 22 Sur 0 981.6 -1.5 20
2019-10-04 13:00:00 29 5 Sur 15 Sudeste 0 982.4 -0.4 21
2019-10-04 12:00:00 28.5 2 Sudeste 6 Sudeste 0 982.8 -0.1 25
2019-10-04 11:00:00 23.9 2 Sur 5 Sudoeste 0 983.1 0.2 30
2019-10-04 10:00:00 22.5 0 Calma -- -- 0 982.8 0.2 35
2019-10-04 09:00:00 18.2 0 Calma 3 Este 0 982.9 0.3 48
2019-10-04 08:00:00 15.1 2 Este 5 Este 0 982.9 0.5 55
2019-10-04 07:00:00 15.5 0 Calma 5 Este 0 982.6 0.1 53
2019-10-04 06:00:00 15.4 3 Este 9 Nordeste 0 982.6 -0.4 55
2019-10-04 05:00:00 17 0 Calma 8 Oeste 0 982.4 -0.4 44
2019-10-04 04:00:00 17.3 0 Calma 5 Noroeste 0 982.5 -0.6 46
2019-10-04 03:00:00 16.9 0 Calma 6 Sudoeste 0 983 -0.1 48
2019-10-04 02:00:00 17.6 0 Calma 10 Sudoeste 0 982.8 -0.1 56
2019-10-04 01:00:00 19.7 0 Calma 6 Oeste 0 983.1 0.5 50
2019-10-04 00:00:00 19.4 3 Sudoeste 8 Sudoeste 0 983.1 1.1 61
2019-10-03 23:00:00 18.9 3 Sudoeste 7 Sudoeste 0 982.9 1.4 63
2019-10-03 22:00:00 20.4 0 Calma 8 Este 0 982.6 1.6 59
2019-10-03 21:00:00 21.3 4 Este 13 Nordeste 0 982 1.2 55
2019-10-03 20:00:00 22.2 7 Este 17 Este 0 981.5 0.6 52
2019-10-03 19:00:00 24.9 6 Este 14 Este 0 981 0 39
2019-10-03 18:00:00 25.7 7 Sudoeste 18 Este 0 980.8 -0.5 34
2019-10-03 17:00:00 27 6 Sudeste 20 Sudoeste 0 980.9 -1 34
2019-10-03 16:00:00 25.6 9 Sur 24 Sur 0 981 -1.9 29
2019-10-03 15:00:00 26.7 13 Sur 24 Sur 0 981.3 -1.5 22
2019-10-03 14:00:00 26.8 12 Sur 24 Sur 0 981.9 -1.1 21
2019-10-03 13:00:00 28.4 5 Este 11 Sur 0 982.9 0.2 20
2019-10-03 12:00:00 26.9 3 Este 9 Este 0 982.8 -0.2 24
2019-10-03 11:00:00 25.9 0 Calma 4 Este 0 983 0.7 26
2019-10-03 10:00:00 20.4 0 Calma 5 Sudoeste 0 982.7 0.2 37
2019-10-03 09:00:00 16.4 0 Calma 4 Noroeste 0 983 0.6 62
2019-10-03 08:00:00 14.6 0 Calma 5 Oeste 0 982.3 0.2 62
2019-10-03 07:00:00 15.4 3 Noroeste 7 Noroeste 0 982.5 0.4 62
2019-10-03 06:00:00 15.1 0 Calma 8 Sudeste 0 982.4 0 72
2019-10-03 05:00:00 15.8 0 Calma 11 Sudoeste 0 982.1 -0.4 66
2019-10-03 04:00:00 17 0 Calma 6 Noroeste 0 982.1 -0.5 62
2019-10-03 03:00:00 17.4 0 Calma 5 Sudoeste 0 982.4 -0.1 65
2019-10-03 02:00:00 17 4 Noroeste 6 Noroeste 0 982.5 0.1 67
2019-10-03 01:00:00 18.7 2 Sudeste 7 Sudoeste 0 982.6 0.5 62
2019-10-03 00:00:00 19.5 0 Calma 8 Oeste 0 982.5 1.1 58
2019-10-02 23:00:00 20.1 3 Noroeste 7 Norte 0 982.4 1.8 53
2019-10-02 22:00:00 20.2 4 Oeste 8 Noroeste 0 982.1 2.3 54
2019-10-02 21:00:00 21.3 5 Oeste 12 Sudoeste 0 981.4 2.5 47
2019-10-02 20:00:00 22.5 5 Sudoeste 18 Sudoeste 0 980.6 1.8 42
2019-10-02 19:00:00 23.7 9 Sudoeste 25 Sudoeste 0 979.8 1.1 38
2019-10-02 18:00:00 24.7 13 Sudoeste 28 Sur 0 978.9 0.2 34
2019-10-02 17:00:00 25.2 17 Sur 28 Sudoeste 0 978.8 -0.3 34
2019-10-02 16:00:00 26.6 13 Sur 24 Sudoeste 0 978.7 -1.1 28
2019-10-02 15:00:00 27.1 13 Sur 28 Sudoeste 0 978.7 -1 28
2019-10-02 14:00:00 26.8 12 Sur 22 Sur 0 979.1 -0.9 27
2019-10-02 13:00:00 27.9 9 Sur 24 Noroeste 0 979.8 0.1 23
2019-10-02 12:00:00 27.2 10 Oeste 26 Oeste 0 979.7 0 25
2019-10-02 11:00:00 25.1 12 Noroeste 29 Sudoeste 0 980 0.9 29
2019-10-02 10:00:00 22.5 14 Oeste 26 Oeste 0 979.7 0.8 33
2019-10-02 09:00:00 21.5 11 Oeste 21 Oeste 0 979.7 1.4 34
2019-10-02 08:00:00 21.6 12 Oeste 29 Oeste 0 979.1 0.7 34
2019-10-02 07:00:00 22.1 15 Oeste 31 Noroeste 0 978.9 0.5 32
2019-10-02 06:00:00 22.2 19 Oeste 29 Oeste 0 978.3 -0.4 31
2019-10-02 05:00:00 22.3 14 Oeste 29 Oeste 0 978.4 -0.2 31
2019-10-02 04:00:00 23 17 Oeste 37 Oeste 0 978.4 -0.3 27
2019-10-02 03:00:00 23.3 18 Oeste 29 Oeste 0 978.7 0.2 26
2019-10-02 02:00:00 24.2 11 Noroeste 19 Noroeste 0 978.6 0.1 24
2019-10-02 01:00:00 24.6 0 Calma 21 Sudoeste 0 978.7 1 20
2019-10-02 00:00:00 24.9 10 Oeste 25 Noroeste 0 978.5 1.8 18
2019-10-01 23:00:00 26 10 Noroeste 29 Noroeste 0 978.5 2.2 16
2019-10-01 22:00:00 26.5 11 Noroeste 24 Noroeste 0 977.7 1.8 15
2019-10-01 21:00:00 28 10 Noroeste 29 Noroeste 0 976.7 1.3 --
2019-10-01 20:00:00 29.4 15 Noroeste 39 Noroeste 0 976.3 0.9 --
2019-10-01 19:00:00 30.4 12 Noroeste 31 Noroeste 0 975.9 0.4 --
2019-10-01 18:00:00 31.3 14 Noroeste 40 Oeste 0 975.4 -0.7 --
2019-10-01 17:00:00 32.5 18 Noroeste 45 Oeste 0 975.4 -1.7 --
2019-10-01 16:00:00 32.8 17 Norte 44 Noroeste 0 975.5 -2.3 12
2019-10-01 15:00:00 33.3 16 Noroeste 32 Noroeste 0 976.1 -2.7 12
2019-10-01 14:00:00 32.8 17 Oeste 36 Oeste 0 977.1 -1.5 12
2019-10-01 13:00:00 31.4 18 Noroeste 39 Noroeste 0 977.8 -1.3 13
2019-10-01 12:00:00 28.3 0 Calma 6 Este 0 978.8 -0.1 27
2019-10-01 11:00:00 24.5 0 Calma -- -- 0 978.6 -0.5 43
2019-10-01 10:00:00 19.1 0 Calma 0 Calma 0 979.1 0 66
2019-10-01 09:00:00 16.8 0 Calma -- -- 0 978.9 -0.2 75
2019-10-01 08:00:00 15.4 0 Calma 0 Calma 0 979.1 -0.3 81
2019-10-01 07:00:00 16.1 0 Calma 4 Este 0 979.1 -0.6 81
2019-10-01 06:00:00 16.7 0 Calma 5 Oeste 0 979.1 -1.4 80
2019-10-01 05:00:00 17 0 Calma 4 Oeste 0 979.4 -1.5 79
2019-10-01 04:00:00 17.8 0 Calma 4 Oeste 0 979.7 -1.1 79
2019-10-01 03:00:00 18.5 0 Calma 5 Oeste 0 980.5 -0.6 78
2019-10-01 02:00:00 18.8 0 Calma 6 Noroeste 0 980.9 -0.3 78
2019-10-01 01:00:00 20.2 0 Calma -- -- 0 980.8 -0.3 75
2019-10-01 00:00:00 20.5 0 Calma -- -- 0 981.1 0.8 71
2019-09-30 23:00:00 21.1 0 Calma 3 Sur 0 981.2 1.1 68
2019-09-30 22:00:00 21.7 0 Calma 8 Oeste 0 981.1 1.3 65
2019-09-30 21:00:00 22.2 5 Sudoeste 9 Sur 0 980.3 0.7 67
2019-09-30 20:00:00 23.5 4 Sur 12 Sudoeste 0 980.1 0.7 59
2019-09-30 19:00:00 25.5 10 Sudoeste 18 Sudoeste 0 979.8 -0.1 46
2019-09-30 18:00:00 26.7 10 Sur 20 Oeste 0 979.6 -0.5 39
2019-09-30 17:00:00 28.2 10 Sudoeste 22 Sudoeste 0 979.4 -1.9 35
2019-09-30 16:00:00 28.9 12 Sur 19 Sudoeste 0 979.9 -2.5 34
2019-09-30 15:00:00 29.2 10 Sudoeste 18 Sudoeste 0 980.1 -2.1 31
2019-09-30 14:00:00 28.8 8 Sur 17 Sudoeste 0 981.3 -1.2 33
2019-09-30 13:00:00 27.7 8 Sur 14 Sur 0 982.4 0.8 30
2019-09-30 12:00:00 27.4 3 Sur 12 Sur 0 982.2 0.5 24
2019-09-30 11:00:00 24.4 4 Sur 11 Sur 0 982.5 0.4 33
2019-09-30 10:00:00 23.5 0 Calma -- -- 0 981.6 -0.3 46
2019-09-30 09:00:00 19 0 Calma -- -- 0 981.7 -0.1 75
2019-09-30 08:00:00 17.3 0 Calma -- -- 0 982.1 0.1 81
2019-09-30 07:00:00 16.6 0 Calma -- -- 0 981.9 -0.4 81
2019-09-30 06:00:00 17.3 0 Calma -- -- 0 981.8 -0.7 81
2019-09-30 05:00:00 17.8 0 Calma 2 Norte 0 982 -0.7 81
2019-09-30 04:00:00 18.9 0 Calma -- -- 0 982.3 -0.3 81
2019-09-30 03:00:00 19.2 0 Calma 3 Oeste 0 982.5 -0.2 78
2019-09-30 02:00:00 19.3 0 Calma 5 Noroeste 0 982.7 0 81
2019-09-30 01:00:00 19.8 0 Calma 2 Oeste 0 982.6 0.1 81
2019-09-30 00:00:00 20.5 0 Calma 5 Sudeste 0 982.7 0.6 80
2019-09-29 23:00:00 20.9 0 Calma 3 Noroeste 0 982.7 1 79
2019-09-29 22:00:00 21.3 0 Calma 6 Noroeste 0 982.5 1 78
2019-09-29 21:00:00 21.8 3 Sudoeste 6 Sudoeste 0 982.1 0.3 76
2019-09-29 20:00:00 23 4 Sudoeste 8 Sudoeste 0 981.7 -0.2 70
2019-09-29 19:00:00 25.6 3 Sur 18 Sudoeste 0 981.5 -0.4 59
2019-09-29 18:00:00 24.7 13 Sudoeste 21 Sudoeste 0 981.8 -0.7 61
2019-09-29 17:00:00 26.5 12 Sudoeste 20 Sudoeste 0 981.9 -1.7 52
2019-09-29 16:00:00 26.6 13 Sudoeste 22 Sudoeste 0 981.9 -2.1 48
2019-09-29 15:00:00 26.7 10 Sudoeste 23 Sudoeste 0 982.5 -1.8 49
2019-09-29 14:00:00 25.8 12 Sudoeste 22 Sudoeste 0 983.6 -0.7 49
2019-09-29 13:00:00 25.9 10 Sudoeste 17 Sudoeste 0 984 -0.3 42
2019-09-29 12:00:00 26.4 2 Sudeste 9 Sudoeste 0 984.3 0.5 46
2019-09-29 11:00:00 23.3 0 Calma 3 Este 0 984.3 0.6 63
2019-09-29 10:00:00 18.4 0 Calma 4 Nordeste 0 984.3 0.6 82
2019-09-29 09:00:00 17.8 0 Calma 3 Nordeste 0 983.8 -0.1 82
2019-09-29 08:00:00 17.3 0 Calma 6 Este 0 983.7 -0.5 82
2019-09-29 07:00:00 17.5 0 Calma 3 Norte 0 983.7 -0.3 82
2019-09-29 06:00:00 18.2 0 Calma 3 Norte 0 983.9 -0.8 82
2019-09-29 05:00:00 19 0 Calma 3 Este 0 984.2 -0.8 82
2019-09-29 04:00:00 19.1 0 Calma 4 Norte 0 984 -1.2 82
2019-09-29 03:00:00 19.4 0 Calma 6 Noroeste 0 984.7 -0.6 81
2019-09-29 02:00:00 19.7 2 Noroeste 4 Noroeste 0 985 -0.1 81
2019-09-29 01:00:00 19.8 0 Calma 4 Noroeste 0 985.2 0.6 82
2019-09-29 00:00:00 20.4 2 Noroeste 5 Sudoeste 0 985.3 1 82
2019-09-28 23:00:00 20.6 2 Sudoeste 5 Sur 0 985.1 1.3 81
2019-09-28 22:00:00 21.1 0 Calma 7 Sudoeste 0 984.6 1 80
2019-09-28 21:00:00 21.5 4 Sudoeste 14 Sudoeste 0 984.3 0.8 79
2019-09-28 20:00:00 22.3 9 Sudoeste 16 Sudoeste 0 983.8 0.4 75
2019-09-28 19:00:00 24.2 10 Sur 20 Sur 0 983.6 -0.3 66
2019-09-28 18:00:00 24.8 14 Sur 22 Sur 0 983.5 -0.6 60
2019-09-28 17:00:00 25.7 13 Sur 23 Sur 0 983.4 -1.4 54
2019-09-28 16:00:00 26.3 14 Sudoeste 28 Sudoeste 0 983.9 -1.1 55
2019-09-28 15:00:00 26 12 Sudoeste 26 Sudoeste 0 984.1 -1.4 57
2019-09-28 14:00:00 25.8 15 Sur 28 Sudoeste 0 984.8 -0.1 60
2019-09-28 13:00:00 26.7 9 Sur 20 Sudoeste 0 985 0.6 49
2019-09-28 12:00:00 27.2 4 Sur 11 Sudoeste 0 985.5 1.4 36
2019-09-28 11:00:00 26.6 0 Calma 4 Sur 0 984.9 0.9 36
2019-09-28 10:00:00 23.5 0 Calma 3 Sudoeste 0 984.4 0.9 49
2019-09-28 09:00:00 20.7 0 Calma 4 Noroeste 0 984.1 0.9 66
2019-09-28 08:00:00 17.4 0 Calma 4 Este 0 984 0.6 76
2019-09-28 07:00:00 17.6 3 Oeste 6 Oeste 0 983.5 0.1 71
2019-09-28 06:00:00 17.4 0 Calma 5 Noroeste 0 983.2 -0.7 80
2019-09-28 05:00:00 17.9 0 Calma 7 Nordeste 0 983.4 -0.7 80
2019-09-28 04:00:00 18.9 2 Este 5 Sudeste 0 983.4 -0.9 78
2019-09-28 03:00:00 18.9 0 Calma 6 Noroeste 0 983.9 -0.5 81
2019-09-28 02:00:00 19.9 3 Este 13 Este 0 984.1 0 81
2019-09-28 01:00:00 20.3 4 Este 8 Este 0 984.3 0.7 79
2019-09-28 00:00:00 20.8 0 Calma 4 Sudeste 0 984.4 1.5 79
2019-09-27 23:00:00 20.6 2 Oeste 4 Sudoeste 0 984.1 1.6 79
2019-09-27 22:00:00 21.4 0 Calma 6 Sudoeste 0 983.6 1.7 77
2019-09-27 21:00:00 21.8 5 Sudoeste 10 Sudoeste 0 982.9 1.2 75
2019-09-27 20:00:00 22.9 5 Sudoeste 13 Sudoeste 0 982.5 1 70
2019-09-27 19:00:00 24.9 5 Sur 19 Sudoeste 0 981.9 0.3 62
2019-09-27 18:00:00 25.4 10 Sudoeste 20 Sudoeste 0 981.7 -0.5 54
2019-09-27 17:00:00 26.8 12 Sudoeste 24 Oeste 0 981.5 -1.7 49
2019-09-27 16:00:00 27.4 12 Sur 24 Sudoeste 0 981.6 -2.3 43
2019-09-27 15:00:00 27.6 10 Sudoeste 24 Sur 0 982.2 -2.1 42
2019-09-27 14:00:00 27.5 12 Sudoeste 21 Sudoeste 0 983.2 -0.9 46
2019-09-27 13:00:00 27.7 5 Sur 12 Sudoeste 0 983.9 0.2 40
2019-09-27 12:00:00 26.7 2 Sur 8 Sur 0 984.3 0.2 45
2019-09-27 11:00:00 26.3 0 Calma 4 Oeste 0 984.1 -0.1 52
2019-09-27 10:00:00 22.2 0 Calma 0 Calma 0 983.7 -0.2 61
2019-09-27 09:00:00 18.4 0 Calma -- -- 0 984.1 0.3 81
2019-09-27 08:00:00 17.5 0 Calma -- -- 0 984.2 0.3 81
2019-09-27 07:00:00 17.5 0 Calma -- -- 0 983.9 -0.1 81
2019-09-27 06:00:00 17.3 0 Calma -- -- 0 983.8 -0.7 81
2019-09-27 05:00:00 18.1 0 Calma 4 Noroeste 0 983.9 -0.8 81
2019-09-27 04:00:00 18.5 0 Calma 5 Noroeste 0 984 -1.2 81
2019-09-27 03:00:00 18.8 3 Noroeste 5 Noroeste 0 984.5 -0.7 81
2019-09-27 02:00:00 19.2 0 Calma 5 Noroeste 0 984.7 -0.2 81
2019-09-27 01:00:00 20 3 Noroeste 5 Noroeste 0 985.2 0.7 81
2019-09-27 00:00:00 20.1 2 Sudoeste 5 Sudoeste 0 985.2 1.4 81
2019-09-26 23:00:00 20.9 3 Noroeste 8 Sudoeste 0 984.9 1.6 81
2019-09-26 22:00:00 21.1 4 Sudoeste 10 Sudoeste 0 984.5 1.4 80
2019-09-26 21:00:00 21.5 5 Sudoeste 11 Sudoeste 0 983.8 1.4 80
2019-09-26 20:00:00 22.1 8 Sudoeste 18 Sudoeste 0 983.3 0.6 78
2019-09-26 19:00:00 23.2 12 Sur 20 Sur 0 983.1 0.1 72
2019-09-26 18:00:00 25 11 Sudoeste 21 Sudoeste 0 982.4 -0.8 60
2019-09-26 17:00:00 25.1 15 Sudoeste 25 Sur 0 982.7 -1.1 58
2019-09-26 16:00:00 25.8 13 Sur 23 Sudoeste 0 983 -1.4 49
2019-09-26 15:00:00 27.8 6 Este 21 Este 0 983.2 -- 40
2019-09-26 14:00:00 26.9 5 Sur 22 Sudoeste 0 983.8 -0.5 45
2019-09-26 13:00:00 25.7 8 Sudoeste 18 Este 0 984.4 0.6 44
2019-09-26 12:00:00 -- -- -- -- -- -- -- -- --
2019-09-26 11:00:00 25.6 3 Este 8 Este 0 984.3 0.3 42
2019-09-26 10:00:00 22.3 0 Calma 4 Sudoeste 0 983.8 0.2 47
2019-09-26 09:00:00 19.5 0 Calma 5 Oeste 0 984 0.6 61
2019-09-26 08:00:00 16.6 3 Noroeste 5 Noroeste 0 984 0.7 75
2019-09-26 07:00:00 17.2 0 Calma 4 Este 0 983.6 0.6 72
2019-09-26 06:00:00 17.5 0 Calma 4 Noroeste 0 983.4 0.4 72
2019-09-26 05:00:00 17.8 0 Calma 4 Oeste 0 983.3 0.4 72
2019-09-26 04:00:00 18.7 0 Calma 7 Nordeste 0 983 0.1 71
2019-09-26 03:00:00 20 5 Nordeste 12 Nordeste 0 983 0.2 73
2019-09-26 02:00:00 19.3 0 Calma 6 Nordeste 0 982.9 0.6 69
2019-09-26 01:00:00 20 3 Nordeste 7 Nordeste 0 982.9 1 64
2019-09-26 00:00:00 20.7 0 Calma 7 Noroeste 0 982.8 1.5 61
2019-09-25 23:00:00 20.8 0 Calma 6 Sur 0 982.3 1.8 59
2019-09-25 22:00:00 22.3 0 Calma 6 Nordeste 0 981.9 2.1 50
2019-09-25 21:00:00 23.3 3 Este 10 Este 0 981.3 1.9 43
2019-09-25 20:00:00 24.5 6 Este 18 Este 0 980.5 1.1 37
2019-09-25 19:00:00 26.9 3 Sur 17 Sudoeste 0 979.8 0.5 34
2019-09-25 18:00:00 26.9 10 Sudoeste 21 Sudoeste 0 979.4 -0.2 30
2019-09-25 17:00:00 28.1 13 Sur 27 Sudoeste 0 979.4 -0.8 27
2019-09-25 16:00:00 28.5 13 Sudoeste 24 Sur 0 979.3 -2.4 26
2019-09-25 15:00:00 29 12 Sur 29 Sur 0 979.6 -2 25
2019-09-25 14:00:00 28.6 16 Sur 27 Sur 0 980.2 -1.1 23
2019-09-25 13:00:00 29.5 10 Sur 19 Sudoeste 0 981.7 1 23
2019-09-25 12:00:00 31.3 0 Calma 9 Este 0 981.6 0.8 25
2019-09-25 11:00:00 27.4 2 Sudeste 6 Sudeste 0 981.3 0.7 29
2019-09-25 10:00:00 24 3 Este 8 Este 0 980.7 0.1 37
2019-09-25 09:00:00 21.2 3 Este 7 Nordeste 0 980.8 0.3 47
2019-09-25 08:00:00 21.1 0 Calma 11 Sudoeste 0 980.6 0.4 38
2019-09-25 07:00:00 20.1 5 Sur 9 Nordeste 0 980.6 0.2 40
2019-09-25 06:00:00 19.9 2 Nordeste 8 Nordeste 0 980.5 -0.4 42
2019-09-25 05:00:00 20.5 0 Calma 9 Oeste 0 980.2 -0.7 43
2019-09-25 04:00:00 21.3 0 Calma 8 Oeste 0 980.4 -0.7 37
2019-09-25 03:00:00 21.4 3 Nordeste 7 Nordeste 0 980.9 -0.3 45
2019-09-25 02:00:00 20.3 2 Este 7 Este 0 980.9 -0.4 67
2019-09-25 01:00:00 20.7 0 Calma 4 Este 0 981.1 0.1 69
2019-09-25 00:00:00 21.2 0 Calma 6 Sudeste 0 981.2 0.4 66
2019-09-24 23:00:00 22 0 Calma 4 Oeste 0 981.3 0.6 59
2019-09-24 22:00:00 23.2 3 Noroeste 6 Nordeste 0 981 0.5 53
2019-09-24 21:00:00 24.6 4 Este 12 Nordeste 0 980.8 0.2 45
2019-09-24 20:00:00 26.6 3 Nordeste 14 Sudoeste 0 980.7 -0.2 35
2019-09-24 19:00:00 28.1 7 Sudoeste 15 Sudoeste 0 980.5 -0.6 31
2019-09-24 18:00:00 28.5 9 Sudoeste 21 Sudoeste 0 980.6 -1.4 31
2019-09-24 17:00:00 28.4 12 Sudoeste 22 Sudoeste 0 980.9 -2 31
2019-09-24 16:00:00 28.1 13 Sudoeste 23 Sudoeste 0 981.1 -2.9 32
2019-09-24 15:00:00 27.1 13 Sur 21 Sudoeste 0 982 -2.3 34
2019-09-24 14:00:00 28.7 10 Sur 18 Sur 0 982.9 -1.2 27
2019-09-24 13:00:00 30.1 3 Sur 15 Sur 0 984 0.3 22
2019-09-24 12:00:00 27.6 3 Sur 8 Sudoeste 0 984.3 0.2 28
2019-09-24 11:00:00 25.7 0 Calma 6 Sudoeste 0 984.1 -0.3 33
2019-09-24 10:00:00 22.3 0 Calma 5 Sudeste 0 983.7 -0.5 45
2019-09-24 09:00:00 20 0 Calma 4 Oeste 0 984.1 -0.1 62
2019-09-24 08:00:00 16.4 3 Oeste 4 Noroeste 0 984.4 0.1 75
2019-09-24 07:00:00 16.6 0 Calma 5 Noroeste 0 984.2 -0.3 79
2019-09-24 06:00:00 16.8 0 Calma 4 Noroeste 0 984.2 -0.8 79
2019-09-24 05:00:00 16.9 0 Calma 0 Calma 0 984.3 -1 78
2019-09-24 04:00:00 17.4 0 Calma 4 Sudeste 0 984.5 -1.1 76
2019-09-24 03:00:00 17.9 0 Calma -- -- -- 985 -0.9 76
2019-09-24 02:00:00 18.5 4 Oeste 6 Sudoeste 0 985.3 -0.5 72
2019-09-24 01:00:00 19 0 Calma 5 Sudoeste 0 985.6 0.2 72
2019-09-24 00:00:00 19.7 3 Noroeste 6 Noroeste 0 985.9 1.1 69
2019-09-23 23:00:00 20 3 Oeste 5 Noroeste 0 985.8 1.6 66
2019-09-23 22:00:00 21 2 Sudoeste 5 Sudoeste 0 985.4 1.4 63
2019-09-23 21:00:00 21.8 3 Sudoeste 9 Sur 0 984.8 1.4 56
2019-09-23 20:00:00 22.4 6 Sudoeste 15 Sudoeste 0 984.2 1 46
2019-09-23 19:00:00 23.8 9 Sur 18 Sudoeste 0 984 1 37
2019-09-23 18:00:00 25.4 9 Sur 23 Sudoeste 0 983.4 -0.2 34
2019-09-23 17:00:00 25.6 14 Sudoeste 28 Sudoeste 0 983.2 -1 36
2019-09-23 16:00:00 26.6 13 Sur 24 Sur 0 983 -2 36
2019-09-23 15:00:00 26.3 13 Sur 25 Sur 0 983.6 -1.3 35
2019-09-23 14:00:00 26.2 14 Sudoeste 25 Sudoeste 0 984.2 -0.6 33
2019-09-23 13:00:00 26.1 8 Sudoeste 19 Sudoeste 0 985 0.9 34
2019-09-23 12:00:00 27.6 3 Oeste 10 Sudoeste 0 984.9 0.3 33
2019-09-23 11:00:00 25.4 0 Calma 7 Sudoeste 0 984.8 0.6 37
2019-09-23 10:00:00 22.2 2 Sudoeste 5 Oeste 0 984.1 0.5 46
2019-09-23 09:00:00 19.8 3 Noroeste 4 Noroeste 0 984.6 2.1 66
2019-09-23 08:00:00 17.5 0 Calma 7 Noroeste 0 984.2 1.9 74
2019-09-23 07:00:00 18 0 Calma 6 Norte 0 983.6 1.7 72
2019-09-23 06:00:00 18.2 0 Calma 7 Noroeste 0 982.5 0.6 65
2019-09-23 05:00:00 19.9 4 Noroeste 10 Oeste 0 982.3 0.7 54
2019-09-23 04:00:00 20.6 0 Calma 13 Sudoeste 0 981.9 0.5 53
2019-09-23 03:00:00 21.4 6 Oeste 15 Oeste 0 981.9 0.8 50
2019-09-23 02:00:00 21.7 6 Oeste 13 Sudoeste 0 981.6 0.8 52
2019-09-23 01:00:00 22 3 Sudoeste 6 Sudoeste 0 981.4 1.1 53
2019-09-23 00:00:00 22.9 2 Sur 8 Sudoeste 0 981.1 1.8 47
2019-09-22 23:00:00 23.6 0 Calma 8 Oeste 0 980.8 2.3 43
2019-09-22 22:00:00 23.5 2 Oeste 10 Nordeste 0 980.3 2.4 40
2019-09-22 21:00:00 25.1 6 Nordeste 12 Nordeste 0 979.3 2 34
2019-09-22 20:00:00 27.1 3 Este 12 Sudoeste 0 978.5 1.1 27
2019-09-22 19:00:00 28.2 9 Sudoeste 20 Sudoeste 0 977.9 0.9 27
2019-09-22 18:00:00 29.8 9 Sudoeste 22 Sudoeste 0 977.3 0 24
2019-09-22 17:00:00 29.7 9 Sur 20 Sudeste 0 977.4 -0.6 24
2019-09-22 16:00:00 30.7 10 Sur 28 Oeste 0 977 -2.1 24
2019-09-22 15:00:00 30.1 10 Sur 23 Oeste 0 977.3 -1.9 25
2019-09-22 14:00:00 30.4 9 Sudoeste 30 Sudoeste 0 978 -0.9 24
2019-09-22 13:00:00 28.6 10 Sudoeste 21 Oeste 0 979.1 0.3 28
2019-09-22 12:00:00 26.9 11 Sudoeste 21 Oeste 0 979.2 0.4 33
2019-09-22 11:00:00 25.2 13 Oeste 21 Oeste 0 978.9 0.2 40
2019-09-22 10:00:00 22.7 0 Calma 10 Noroeste 0 978.8 0.3 54
2019-09-22 09:00:00 19.9 0 Calma -- -- 0 978.8 0.7 81
2019-09-22 08:00:00 19 0 Calma 0 Calma 0 978.7 0.9 82
2019-09-22 07:00:00 19.3 0 Calma 0 Calma 0 978.5 0.2 82
2019-09-22 06:00:00 19.8 0 Calma 6 Oeste 0 978.1 -0.4 82
2019-09-22 05:00:00 20.3 0 Calma 4 Noroeste 0 977.8 -0.8 81
2019-09-22 04:00:00 20.4 3 Oeste 5 Nordeste 0 978.3 -0.4 81
2019-09-22 03:00:00 20.9 0 Calma 4 Este 0 978.5 -0.5 81
2019-09-22 02:00:00 21.4 0 Calma 6 Sudeste 0 978.6 0 81
2019-09-22 01:00:00 21.5 0 Calma 5 Noroeste 0 978.7 0.2 81
2019-09-22 00:00:00 21.7 0 Calma 9 Nordeste 0 979 1.2 81
2019-09-21 23:00:00 21.9 5 Este 11 Este 0 978.6 0.8 80
2019-09-21 22:00:00 22.3 4 Este 9 Nordeste 0 978.5 0.5 77
2019-09-21 21:00:00 22.6 5 Este 11 Nordeste 0 977.8 0.1 77
2019-09-21 20:00:00 23.4 0 Calma 11 Este 0 977.8 0.3 73
2019-09-21 19:00:00 23.8 2 Sudoeste 6 Sudoeste 0 978 -0.1 69
2019-09-21 18:00:00 24.1 3 Sudeste 18 Sur 0 977.7 0 66
2019-09-21 17:00:00 24.3 9 Sur 23 Sudoeste 0 977.5 -1.1 59
2019-09-21 16:00:00 24.4 12 Sur 22 Sur 0 978.1 -1.2 57
2019-09-21 15:00:00 27.3 5 Sudoeste 15 Sudoeste 0 977.7 -- 45
2019-09-21 14:00:00 24.7 8 Sur 18 Sudoeste 0 978.6 -0.7 52
2019-09-21 13:00:00 25 6 Sur 17 Sudoeste 0 979.3 0.3 48
2019-09-21 12:00:00 -- -- -- -- -- -- -- -- --
2019-09-21 11:00:00 25 3 Sudoeste 10 Sudoeste 0 979.3 0.2 48
2019-09-21 10:00:00 23 3 Sur 6 Sudeste 0 979 0.1 64
2019-09-21 09:00:00 20.3 3 Noroeste 5 Noroeste 0 979.4 0.7 80
2019-09-21 08:00:00 19.6 0 Calma 5 Sudoeste 0 979.1 0.6 81
2019-09-21 07:00:00 19.7 3 Noroeste 6 Noroeste 0 978.9 -0.1 81
2019-09-21 06:00:00 20.1 2 Noroeste 4 Sudoeste 0 978.7 -0.1 81
2019-09-21 05:00:00 20.2 5 Norte 8 Norte 0 978.5 -1.3 81
2019-09-21 04:00:00 20 0 Calma 6 Nordeste 0 979 -1.8 81
2019-09-21 03:00:00 20.4 3 Nordeste 8 Nordeste 0 978.8 -2.1 81
2019-09-21 02:00:00 20.8 0 Calma 5 Nordeste 0 979.8 -1 79
2019-09-21 01:00:00 21.1 2 Sudeste 8 Sudeste 0 980.8 0.4 79
2019-09-21 00:00:00 21.2 2 Este 7 Nordeste 0 980.9 1.4 78
2019-09-20 23:00:00 21.4 3 Sudeste 9 Sudeste 0 980.8 1.3 77
2019-09-20 22:00:00 21.6 5 Este 16 Este 0 980.4 0.5 75
2019-09-20 21:00:00 22.3 7 Este 19 Nordeste 0 979.5 -0.4 71
2019-09-20 20:00:00 23.1 8 Este 17 Este 0 979.5 -0.2 69
2019-09-20 19:00:00 23.6 8 Sudeste 17 Este 0 979.9 -0.3 69
2019-09-20 18:00:00 24.3 6 Este 18 Este 0 979.9 -0.9 61
2019-09-20 17:00:00 25 10 Sudeste 23 Este 0 979.7 -1.9 60
2019-09-20 16:00:00 24.6 9 Este 26 Este 0 980.2 -1.5 62
2019-09-20 15:00:00 23.4 10 Sudeste 23 Sudeste 0 980.8 -1.4 65
2019-09-20 14:00:00 23.3 6 Sudeste 13 Sudeste 0 981.6 -0.8 65
2019-09-20 13:00:00 23.9 5 Nordeste 19 Nordeste 0 981.7 0.1 61
2019-09-20 12:00:00 22.8 6 Este 17 Este 0 982.2 0.7 62
2019-09-20 11:00:00 23.2 6 Este 21 Este 0 982.4 1 58
2019-09-20 10:00:00 22.9 5 Este 15 Este 0 981.6 0 59
2019-09-20 09:00:00 20.5 3 Este 14 Nordeste 0 981.5 -0.8 75
2019-09-20 08:00:00 19.9 2 Este 12 Nordeste 0 981.4 -1.5 76
2019-09-20 07:00:00 19.9 3 Nordeste 14 Nordeste 0 981.6 -1.2 76
2019-09-20 06:00:00 19.8 5 Nordeste 12 Este 0 982.3 -0.5 81
2019-09-20 05:00:00 20.2 4 Este 11 Sudeste 0 982.9 0.4 81
2019-09-20 04:00:00 20.3 4 Sudeste 9 Este 0 982.8 0.5 81
2019-09-20 03:00:00 20.3 5 Este 12 Sudeste 0 982.8 0.4 81
2019-09-20 02:00:00 20.9 2 Este 5 Este 0 982.5 -0.3 79
2019-09-20 01:00:00 21 3 Este 6 Nordeste 0 982.3 -0.2 79
2019-09-20 00:00:00 21.2 3 Nordeste 5 Este 0 982.4 0.6 79
2019-09-19 23:00:00 21.8 3 Sudoeste 6 Sudoeste 0 982.8 1.7 79
2019-09-19 22:00:00 21.7 3 Sudoeste 9 Sur 0 982.5 1.9 79
2019-09-19 21:00:00 21.7 5 Sur 14 Sur 0 981.8 1.4 78
2019-09-19 20:00:00 22.4 9 Sur 17 Sudoeste 0 981.1 1 73
2019-09-19 19:00:00 23.4 11 Sudoeste 22 Sudoeste 0 980.6 0.2 64
2019-09-19 18:00:00 25 13 Sudoeste 27 Sudoeste 0 980.4 -0.3 55
2019-09-19 17:00:00 26.6 13 Sudoeste 23 Sur 0 980.1 -1.5 43
2019-09-19 16:00:00 27 10 Sudoeste 19 Sudoeste 0 980.4 -2 40
2019-09-19 15:00:00 26.7 3 Sudeste 22 Sudoeste 0 980.7 -1.7 45
2019-09-19 14:00:00 26.3 10 Sur 37 Sudoeste 0 981.6 -0.3 55
2019-09-19 13:00:00 26.8 7 Sur 15 Sudoeste 0 982.4 0.6 53
2019-09-19 12:00:00 24.9 6 Sur 13 Sudoeste 0 982.4 0.8 62
2019-09-19 11:00:00 24.8 4 Este 15 Este 0 981.9 0.3 61
2019-09-19 10:00:00 22.8 0 Calma 4 Este 0 981.8 0.8 60
2019-09-19 09:00:00 19.7 0 Calma -- -- 0 981.6 0.6 80
2019-09-19 08:00:00 18.2 0 Calma 5 Nordeste 0 981.6 0.3 81
2019-09-19 07:00:00 18.1 0 Calma -- -- 0 981 -0.5 81
2019-09-19 06:00:00 18.6 0 Calma -- -- 0 981 -0.9 81
2019-09-19 05:00:00 18.9 0 Calma 4 Noroeste 0 981.3 -0.7 81
2019-09-19 04:00:00 19.1 0 Calma 4 Nordeste 0 981.5 -0.3 81
2019-09-19 03:00:00 19.9 0 Calma 5 Nordeste 0 981.9 0.2 80
2019-09-19 02:00:00 20.1 0 Calma 5 Noroeste 0 982 0.4 79
2019-09-19 01:00:00 20.5 0 Calma 4 Noroeste 0 981.8 0.4 77
2019-09-19 00:00:00 21 0 Calma 5 Sudoeste 0 981.7 0.9 75
2019-09-18 23:00:00 21.7 0 Calma 5 Noroeste 0 981.6 1.5 72
2019-09-18 22:00:00 22.1 2 Noroeste 4 Sudoeste 0 981.4 1.7 68
2019-09-18 21:00:00 23 4 Sudoeste 9 Sudoeste 0 980.8 1.3 62
2019-09-18 20:00:00 23.7 6 Sudoeste 18 Sudoeste 0 980.1 0.8 60
2019-09-18 19:00:00 24.7 11 Sudoeste 23 Sudoeste 0 979.7 0.1 55
2019-09-18 18:00:00 25.4 12 Sudoeste 25 Sudoeste 0 979.5 -0.6 53
2019-09-18 17:00:00 26.7 12 Sudoeste 25 Sudoeste 0 979.3 -1.6 46
2019-09-18 16:00:00 26.7 14 Sur 25 Sudoeste 0 979.6 -0.9 44
2019-09-18 15:00:00 28.5 9 Sur 21 Sudoeste 0 980.1 -1 38
2019-09-18 14:00:00 27.8 8 Sur 16 Sur 0 980.9 0 39
2019-09-18 13:00:00 30.2 0 Calma 15 Sudoeste 0 980.5 0.2 32
2019-09-18 12:00:00 28.3 0 Calma 5 Sur 0 981.1 0.4 33
2019-09-18 11:00:00 28 0 Calma 0 Calma 0 980.9 0.2 38
2019-09-18 10:00:00 23.7 0 Calma 2 Norte 0 980.3 0.3 51
2019-09-18 09:00:00 18.4 0 Calma 4 Norte 0 980.7 0.9 81
2019-09-18 08:00:00 17.3 0 Calma 6 Sur 0 980.7 0.6 81
2019-09-18 07:00:00 17.9 0 Calma -- -- 0 980 -0.5 82
2019-09-18 06:00:00 18.2 0 Calma 0 Calma 0 979.8 -1.1 81
2019-09-18 05:00:00 18.6 0 Calma 3 Norte 0 980.1 -1 81
2019-09-18 04:00:00 19 0 Calma 0 Calma 0 980.5 -0.5 81
2019-09-18 03:00:00 18.8 0 Calma 6 Noroeste 0 980.9 -0.3 81
2019-09-18 02:00:00 19.4 0 Calma -- -- 0 981.1 -0.3 81
2019-09-18 01:00:00 20 0 Calma 6 Sudoeste 0 981 -0.3 81
2019-09-18 00:00:00 20.4 2 Oeste 7 Noroeste 0 981.2 0.6 81
2019-09-17 23:00:00 21.2 3 Noroeste -- -- -- 981.4 1.7 81
2019-09-17 22:00:00 22.1 0 Calma 9 Sur 0 981.3 1.6 77
2019-09-17 21:00:00 22.9 5 Sur 9 Sur 0 980.6 0.8 74
2019-09-15 18:00:00 26.3 13 Sudoeste 24 Sudoeste 0 981.7 -0.6 58
2019-09-15 17:00:00 28.2 4 Este 17 Sudeste 0 981.5 -1.1 40
2019-09-15 16:00:00 30.3 4 Este 23 Sudeste 0 981.6 -1 40
2019-09-15 15:00:00 27.2 12 Este 29 Este 0 982.3 -0.7 47
2019-09-15 14:00:00 27.4 12 Este 26 Este 0 982.6 -0.9 48
2019-09-15 13:00:00 26.8 10 Sudeste 23 Este 0 982.6 -0.4 49
2019-09-15 12:00:00 26.1 8 Este 25 Este 0 983 -0.1 52
2019-09-15 11:00:00 25.2 5 Este 19 Nordeste 0 983.5 0.2 56
2019-09-15 10:00:00 24.7 0 Calma 8 Este 0 983 -0.1 61
2019-09-15 09:00:00 20.5 0 Calma 3 Este 0 983.1 0 81
2019-09-15 08:00:00 18.9 0 Calma 4 Oeste 0 983.3 -0.1 81
2019-09-15 07:00:00 18.7 2 Noroeste 7 Oeste 0 983.1 -0.5 81
2019-09-15 06:00:00 19 0 Calma 9 Oeste 0 983.1 -1.2 81
2019-09-15 05:00:00 19.5 2 Noroeste 7 Noroeste 0 983.4 -1 81
2019-09-15 04:00:00 20.6 0 Calma 11 Noroeste 0 983.6 -0.6 78
2019-09-15 03:00:00 20.9 4 Noroeste 14 Oeste 0 984.3 -0.6 78
2019-09-15 02:00:00 21.5 3 Sudeste 10 Noroeste 0 984.4 -0.8 74
2019-09-15 01:00:00 20.6 0 Calma 13 Oeste 0 984.2 -0.8 77
2019-09-15 00:00:00 21.2 0 Calma 6 Noroeste 0 984.9 0.7 76
2019-09-14 23:00:00 21.5 5 Noroeste 9 Noroeste 0 985.2 1.5 75
2019-09-14 22:00:00 22.3 0 Calma 14 Este 0 985 1.9 70
2019-09-14 21:00:00 22.5 3 Este 14 Norte 0 984.2 1 67
2019-09-14 20:00:00 23.4 5 Nordeste 22 Nordeste 0 983.7 0.3 62
2019-09-14 19:00:00 23.6 8 Este 27 Nordeste 0 983.1 -0.6 61
2019-09-14 18:00:00 23.4 8 Este 34 Sudeste 0 983.2 -1.2 62
2019-09-14 17:00:00 23.8 12 Este 33 Este 0 983.4 -1.6 60
2019-09-14 16:00:00 23.5 12 Este 33 Este 0 983.7 -2.5 60
2019-09-14 15:00:00 22.8 12 Este 33 Este 0 984.4 -2 59
2019-09-14 14:00:00 22.9 11 Este 26 Nordeste 0 985 -1.7 56
2019-09-14 13:00:00 21.7 10 Este 24 Este 0 986.2 -0.1 59
2019-09-14 12:00:00 21.1 4 Este 9 Nordeste 0 986.4 0.6 63
2019-09-14 11:00:00 19.6 5 Noroeste 9 Noroeste 0 986.7 1 75
2019-09-14 10:00:00 18.1 5 Noroeste 10 Noroeste 0 986.3 0.5 80
2019-09-14 09:00:00 17.2 0 Calma 6 Noroeste 0 985.8 0.2 81
2019-09-14 08:00:00 16.8 3 Nordeste 12 Nordeste 0 985.7 -0.6 81
2019-09-14 07:00:00 16.5 6 Noroeste 10 Este 0 985.8 -0.5 82
2019-09-14 06:00:00 16.1 0 Calma 13 Nordeste 0 985.6 -1.3 82
2019-09-14 05:00:00 15.7 0 Calma 9 Noroeste 0 986.3 -2.8 82
2019-09-14 04:00:00 15.2 6 Este 34 Este 0.4 986.3 -1.1 83
2019-09-14 03:00:00 14.2 3 Nordeste 32 Sudeste 26.4 986.9 -1.4 84
2019-09-14 02:00:00 16.2 22 Sudoeste 41 Sudoeste 3.2 989.1 1.5 83
2019-09-14 01:00:00 19 4 Este 21 Nordeste 0 987.4 0.2 68
2019-09-14 00:00:00 19.8 7 Este 26 Norte 0.7 988.3 2.5 63